Time;durP1;ratioP1;P1;durP2;ratioP2;P2;SDS_P1;SDS_P2;PMS_P1;PMS_P2;Temp;Humidity;BMP_temperature;BMP_pressure;BME280_temperature;BME280_humidity;BME280_pressure;Samples;Min_cycle;Max_cycle;Signal;HPM_P1;HPM_P2
2023/10/11 00:00:57;;;;;;;10;4.1;;;;;;;;;;;;;
2023/10/11 00:03:32;;;;;;;10;3.9;;;;;;;;;;;;;
2023/10/11 00:05:46;;;;;;;8;3.2;;;;;;;;;;;;;
2023/10/11 00:08:13;;;;;;;10.7;3.5;;;;;;;;;;;;;
2023/10/11 00:10:42;;;;;;;10.7;3.9;;;;;;;;;;;;;
2023/10/11 00:13:03;;;;;;;9.6;3.8;;;;;;;;;;;;;
2023/10/11 00:15:29;;;;;;;12.5;4.4;;;;;;;;;;;;;
2023/10/11 00:17:53;;;;;;;9.4;3.7;;;;;;;;;;;;;
2023/10/11 00:20:27;;;;;;;9.9;3.6;;;;;;;;;;;;;
2023/10/11 00:22:43;;;;;;;9.2;3.7;;;;;;;;;;;;;
2023/10/11 00:25:12;;;;;;;32.3;15.6;;;;;;;;;;;;;
2023/10/11 00:27:36;;;;;;;710.2;390.3;;;;;;;;;;;;;
2023/10/11 00:30:02;;;;;;;42.6;19.2;;;;;;;;;;;;;
2023/10/11 00:32:27;;;;;;;15.4;6.1;;;;;;;;;;;;;
2023/10/11 00:34:52;;;;;;;7.2;3.1;;;;;;;;;;;;;
2023/10/11 00:37:19;;;;;;;10.1;4.4;;;;;;;;;;;;;
2023/10/11 00:39:43;;;;;;;9.4;3.6;;;;;;;;;;;;;
2023/10/11 00:42:10;;;;;;;9.7;4;;;;;;;;;;;;;
2023/10/11 00:44:35;;;;;;;10.3;3.8;;;;;;;;;;;;;
2023/10/11 00:47:00;;;;;;;13.1;4;;;;;;;;;;;;;
2023/10/11 00:49:34;;;;;;;5.9;3.2;;;;;;;;;;;;;
2023/10/11 00:51:51;;;;;;;9.8;3.7;;;;;;;;;;;;;
2023/10/11 00:54:17;;;;;;;9.4;4.3;;;;;;;;;;;;;
2023/10/11 00:56:43;;;;;;;8.5;3.6;;;;;;;;;;;;;
2023/10/11 00:59:10;;;;;;;8.8;3.5;;;;;;;;;;;;;
2023/10/11 01:01:33;;;;;;;8.7;3.4;;;;;;;;;;;;;
2023/10/11 01:03:58;;;;;;;9.3;3.4;;;;;;;;;;;;;
2023/10/11 01:06:25;;;;;;;11;3.1;;;;;;;;;;;;;
2023/10/11 01:08:49;;;;;;;10.3;3.8;;;;;;;;;;;;;
2023/10/11 01:11:14;;;;;;;13.4;3.9;;;;;;;;;;;;;
2023/10/11 01:13:42;;;;;;;11;3.9;;;;;;;;;;;;;
2023/10/11 01:16:05;;;;;;;7.9;3.6;;;;;;;;;;;;;
2023/10/11 01:18:34;;;;;;;9;3.2;;;;;;;;;;;;;
2023/10/11 01:20:58;;;;;;;10.6;3.9;;;;;;;;;;;;;
2023/10/11 01:23:25;;;;;;;13;4.1;;;;;;;;;;;;;
2023/10/11 01:25:49;;;;;;;9.8;3.2;;;;;;;;;;;;;
2023/10/11 01:28:16;;;;;;;9.4;3.1;;;;;;;;;;;;;
2023/10/11 01:30:41;;;;;;;7.3;3.4;;;;;;;;;;;;;
2023/10/11 01:33:07;;;;;;;9;3.5;;;;;;;;;;;;;
2023/10/11 01:35:36;;;;;;;12;3.7;;;;;;;;;;;;;
2023/10/11 01:37:57;;;;;;;10.6;4.3;;;;;;;;;;;;;
2023/10/11 01:40:31;;;;;;;7.8;3.5;;;;;;;;;;;;;
2023/10/11 01:42:53;;;;;;;13.5;3.8;;;;;;;;;;;;;
2023/10/11 01:45:19;;;;;;;11;3.9;;;;;;;;;;;;;
2023/10/11 01:47:50;;;;;;;6.5;2.9;;;;;;;;;;;;;
2023/10/11 01:50:49;;;;;;;7.9;3.6;;;;;;;11.54;94.81348;942.6473;;;;
2023/10/11 01:53:15;;;;;;;8.9;3.4;;;;;;;11.65;94.50781;942.6682;;;;
2023/10/11 01:55:40;;;;;;;10.2;3.5;;;;;;;11.74;94.04395;942.6255;;;;
2023/10/11 01:58:06;;;;;;;8.5;3.6;;;;;;;11.75;93.68164;942.6646;;;;
2023/10/11 02:00:32;;;;;;;90.2;42.4;;;;;;;11.83;93.39941;942.6326;;;;
2023/10/11 02:02:57;;;;;;;13.8;6;;;;;;;11.86;93.31543;942.6689;;;;
2023/10/11 02:05:21;;;;;;;6.9;3.3;;;;;;;11.92;92.7793;942.6783;;;;
2023/10/11 02:07:48;;;;;;;9.4;3.7;;;;;;;11.84;92.61328;942.6121;;;;
2023/10/11 02:10:14;;;;;;;11.4;3.9;;;;;;;11.74;92.80957;942.615;;;;
2023/10/11 02:12:44;;;;;;;11.7;3.5;;;;;;;11.74;92.61328;942.6135;;;;
2023/10/11 02:15:07;;;;;;;8.8;3.6;;;;;;;11.61;92.99805;942.5895;;;;
2023/10/11 02:17:37;;;;;;;9.6;3.6;;;;;;;11.52;93.96289;942.5737;;;;
2023/10/11 02:20:01;;;;;;;5.9;3.4;;;;;;;11.57;93.74609;942.6206;;;;
2023/10/11 02:22:32;;;;;;;11.9;3.6;;;;;;;11.62;93.44824;942.5984;;;;
2023/10/11 02:24:59;;;;;;;11.6;3.4;;;;;;;11.5;94.35938;942.5989;;;;
2023/10/11 02:27:22;;;;;;;11.6;3.7;;;;;;;11.45;94.48535;942.5817;;;;
2023/10/11 02:29:51;;;;;;;11.1;3.5;;;;;;;11.41;94.88867;942.5864;;;;
2023/10/11 02:32:13;;;;;;;9;3.7;;;;;;;11.5;94.90918;942.5847;;;;
2023/10/11 02:34:41;;;;;;;9.5;3.7;;;;;;;11.57;94.10059;942.5496;;;;
2023/10/11 02:37:10;;;;;;;11.3;3.5;;;;;;;11.69;92.98145;942.5602;;;;
2023/10/11 02:39:34;;;;;;;8.3;3.2;;;;;;;11.55;93.2041;942.5861;;;;
2023/10/11 02:41:57;;;;;;;8.3;3.5;;;;;;;11.48;93.20996;942.5988;;;;
2023/10/11 02:44:22;;;;;;;10.6;3.4;;;;;;;11.53;92.82031;942.6041;;;;
2023/10/11 02:46:44;;;;;;;9.9;3.3;;;;;;;11.45;92.63184;942.5402;;;;
2023/10/11 02:49:20;;;;;;;8;3.2;;;;;;;11.41;92.7627;942.6394;;;;
2023/10/11 02:51:51;;;;;;;9.1;2.9;;;;;;;11.43;92.42188;942.5837;;;;
2023/10/11 02:54:05;;;;;;;6.6;3.1;;;;;;;11.42;92.55762;942.6259;;;;
2023/10/11 02:56:39;;;;;;;11.1;3.2;;;;;;;11.43;92.58203;942.6029;;;;
2023/10/11 02:58:55;;;;;;;8.9;3.5;;;;;;;11.43;92.83398;942.5917;;;;
2023/10/11 03:01:22;;;;;;;10.6;3.6;;;;;;;11.5;92.41406;942.5886;;;;
2023/10/11 03:03:48;;;;;;;11.8;3.4;;;;;;;11.42;92.16797;942.5645;;;;
2023/10/11 03:06:13;;;;;;;6.9;3.8;;;;;;;11.43;91.73535;942.5797;;;;
2023/10/11 03:08:40;;;;;;;6.5;3.1;;;;;;;11.37;92.04199;942.6281;;;;
2023/10/11 03:11:15;;;;;;;8.7;3.5;;;;;;;11.24;92.54297;942.6328;;;;
2023/10/11 03:13:40;;;;;;;9.2;3.3;;;;;;;11.25;92.21191;942.6576;;;;
2023/10/11 03:15:58;;;;;;;8.3;3.3;;;;;;;11.31;92.30566;942.6887;;;;
2023/10/11 03:18:22;;;;;;;12.1;3.7;;;;;;;11.29;92.34668;942.6613;;;;
2023/10/11 03:20:46;;;;;;;6.2;3.3;;;;;;;11.22;92.36621;942.6333;;;;
2023/10/11 03:23:12;;;;;;;9.8;4.2;;;;;;;11.06;92.99414;942.5717;;;;
2023/10/11 03:25:44;;;;;;;11.5;3.7;;;;;;;10.97;93.44336;942.6531;;;;
2023/10/11 03:28:05;;;;;;;7.5;3.5;;;;;;;10.89;93.88281;942.6646;;;;
2023/10/11 03:30:35;;;;;;;5.7;3.1;;;;;;;10.98;93.83398;942.6476;;;;
2023/10/11 03:32:57;;;;;;;8;3.6;;;;;;;11.08;93.50293;942.5641;;;;
2023/10/11 03:35:26;;;;;;;11.5;3.4;;;;;;;11.14;93.04785;942.6223;;;;
2023/10/11 03:37:59;;;;;;;7.6;3.4;;;;;;;11.09;93.10547;942.5754;;;;
2023/10/11 03:40:27;;;;;;;15.4;4.1;;;;;;;11.05;93.33496;942.5613;;;;
2023/10/11 03:42:53;;;;;;;9.2;3.9;;;;;;;11.08;92.7832;942.5721;;;;
2023/10/11 03:45:08;;;;;;;12.5;3.4;;;;;;;11.03;93.0459;942.5234;;;;
2023/10/11 03:47:32;;;;;;;10.1;3.2;;;;;;;10.98;92.97852;942.4803;;;;
2023/10/11 03:49:57;;;;;;;6.2;3.1;;;;;;;10.88;93.05859;942.5712;;;;
2023/10/11 03:52:22;;;;;;;10.9;3.7;;;;;;;10.89;93.31152;942.5618;;;;
2023/10/11 03:54:47;;;;;;;8;3.3;;;;;;;10.78;93.43848;942.5798;;;;
2023/10/11 03:57:16;;;;;;;8;3.1;;;;;;;10.86;93.02051;942.535;;;;
2023/10/11 03:59:47;;;;;;;7.5;3.4;;;;;;;10.85;93.13086;942.5253;;;;
2023/10/11 04:02:28;;;;;;;7.5;2.9;;;;;;;10.94;92.19238;942.5394;;;;
2023/10/11 04:04:54;;;;;;;8.8;3.1;;;;;;;10.88;92.26953;942.4604;;;;
2023/10/11 04:07:21;;;;;;;7.3;3;;;;;;;10.79;92.3877;942.5392;;;;
2023/10/11 04:09:44;;;;;;;6.5;2.8;;;;;;;10.77;92.28125;942.574;;;;
2023/10/11 04:12:10;;;;;;;9.5;3.1;;;;;;;10.91;91.63574;942.5055;;;;
2023/10/11 04:14:46;;;;;;;8.6;2.7;;;;;;;10.82;91.56152;942.5145;;;;
2023/10/11 04:17:04;;;;;;;7.8;3.4;;;;;;;10.68;92.41016;942.4658;;;;
2023/10/11 04:19:31;;;;;;;9.5;3.7;;;;;;;10.66;92.56641;942.5198;;;;
2023/10/11 04:21:56;;;;;;;9.8;3;;;;;;;10.62;92.86719;942.563;;;;
2023/10/11 04:24:19;;;;;;;8.9;3.3;;;;;;;10.74;92.77832;942.5338;;;;
2023/10/11 04:26:53;;;;;;;9.2;3.1;;;;;;;10.86;91.68359;942.5342;;;;
2023/10/11 04:29:17;;;;;;;7.1;3.1;;;;;;;10.74;92.03516;942.5624;;;;
2023/10/11 04:31:36;;;;;;;10.1;3.3;;;;;;;10.55;92.87402;942.5256;;;;
2023/10/11 04:33:59;;;;;;;23.8;4.7;;;;;;;10.58;92.75488;942.4528;;;;
2023/10/11 04:36:23;;;;;;;10.9;3.5;;;;;;;10.69;91.93262;942.5759;;;;
2023/10/11 04:38:50;;;;;;;21;3.8;;;;;;;10.59;92.13086;942.5025;;;;
2023/10/11 04:41:17;;;;;;;11.2;4.4;;;;;;;10.45;92.86426;942.4246;;;;
2023/10/11 04:43:50;;;;;;;11.5;4.2;;;;;;;10.51;92.62695;942.5243;;;;
2023/10/11 04:46:15;;;;;;;9;3.8;;;;;;;10.4;92.43066;942.483;;;;
2023/10/11 04:48:36;;;;;;;8.5;3.2;;;;;;;10.15;93.84766;942.588;;;;
2023/10/11 04:51:04;;;;;;;8;3.4;;;;;;;10.09;94.40625;942.4708;;;;
2023/10/11 04:53:32;;;;;;;7.2;2.5;;;;;;;10.14;94.26855;942.5655;;;;
2023/10/11 04:55:59;;;;;;;3.3;2.2;;;;;;;10.12;93.90137;942.5692;;;;
2023/10/11 04:58:39;;;;;;;3.2;2.4;;;;;;;10.13;94.1084;942.5965;;;;
2023/10/11 05:00:47;;;;;;;7;2.4;;;;;;;10.24;93.67578;942.5687;;;;
2023/10/11 05:03:05;;;;;;;4.5;2.5;;;;;;;10.26;93.43945;942.5865;;;;
2023/10/11 05:05:32;;;;;;;5;2.1;;;;;;;10.18;93.53418;942.5496;;;;
2023/10/11 05:08:05;;;;;;;4.6;2;;;;;;;10.03;94.41504;942.5485;;;;
2023/10/11 05:10:43;;;;;;;3.7;1.9;;;;;;;10.17;94.11426;942.6106;;;;
2023/10/11 05:12:57;;;;;;;3.4;2;;;;;;;10.31;93.55273;942.6035;;;;
2023/10/11 05:15:15;;;;;;;4.9;2.3;;;;;;;10.48;92.72168;942.6512;;;;
2023/10/11 05:17:41;;;;;;;4.3;2;;;;;;;10.32;92.36914;942.7015;;;;
2023/10/11 05:22:48;;;;;;;3.8;2.6;;;;;;;10.31;91.87695;942.6998;;;;
2023/10/11 05:25:12;;;;;;;3.3;1.9;;;;;;;10.26;91.83105;942.7251;;;;
2023/10/11 05:27:36;;;;;;;5.6;2;;;;;;;10.18;92.0625;942.7492;;;;
2023/10/11 05:30:11;;;;;;;4.7;2.3;;;;;;;10.11;92.20898;942.7187;;;;
2023/10/11 05:32:27;;;;;;;5.1;2.1;;;;;;;10.05;92.37793;942.6785;;;;
2023/10/11 05:34:51;;;;;;;4.9;2.3;;;;;;;10.02;93.05859;942.7647;;;;
2023/10/11 05:51:19;;;;;;;3.4;2;;;;;;;10.59;91.12402;942.9531;;;;
2023/10/11 05:53:41;;;;;;;3.3;1.9;;;;;;;10.58;90.79102;942.9322;;;;
2023/10/11 05:56:08;;;;;;;3.6;2.2;;;;;;;10.67;90.18164;942.9308;;;;
2023/10/11 05:58:34;;;;;;;3.4;1.9;;;;;;;10.78;89.55469;942.8769;;;;
2023/10/11 06:00:57;;;;;;;4.6;2.1;;;;;;;10.85;89.30469;942.9523;;;;
2023/10/11 06:03:24;;;;;;;4.5;2.4;;;;;;;10.96;88.00293;942.9517;;;;
2023/10/11 06:05:51;;;;;;;4.1;2.3;;;;;;;11.07;87.60059;943.0165;;;;
2023/10/11 06:08:17;;;;;;;3;1.8;;;;;;;11.22;87.05957;943.0525;;;;
2023/10/11 06:10:41;;;;;;;3.8;2.3;;;;;;;11.24;86.18262;943.0242;;;;
2023/10/11 06:13:07;;;;;;;3.2;1.9;;;;;;;11.21;86.38379;943.0489;;;;
2023/10/11 06:15:28;;;;;;;4.6;2.1;;;;;;;11.13;86.93848;943.1362;;;;
2023/10/11 06:17:55;;;;;;;3.8;2.5;;;;;;;11.12;86.90234;943.1202;;;;
2023/10/11 06:20:26;;;;;;;4.3;2.1;;;;;;;11.24;86.85938;943.123;;;;
2023/10/11 06:22:49;;;;;;;3;1.8;;;;;;;11.45;86.12109;943.1447;;;;
2023/10/11 06:25:13;;;;;;;3.3;2;;;;;;;11.55;85.23828;943.1412;;;;
2023/10/11 06:30:09;;;;;;;3.4;2.2;;;;;;;11.8;84.88574;943.1522;;;;
2023/10/11 06:32:31;;;;;;;4;2.1;;;;;;;11.8;84.72754;943.1514;;;;
2023/10/11 06:34:56;;;;;;;6.5;2.3;;;;;;;12.04;84.32617;943.2036;;;;
2023/10/11 06:37:24;;;;;;;3.6;2.1;;;;;;;12.2;83.12988;943.2117;;;;
2023/10/11 06:42:21;;;;;;;4.2;2.1;;;;;;;12.01;84.03418;943.1462;;;;
2023/10/11 06:44:37;;;;;;;3.8;2.3;;;;;;;12.01;84.46973;943.1429;;;;
2023/10/11 06:47:03;;;;;;;3.1;2.2;;;;;;;12.34;83.9834;943.1697;;;;
2023/10/11 06:49:27;;;;;;;3.8;2.3;;;;;;;12.59;83.42188;943.1675;;;;
2023/10/11 06:51:52;;;;;;;2.8;2;;;;;;;12.9;81.07227;943.1125;;;;
2023/10/11 06:54:23;;;;;;;3.1;1.7;;;;;;;12.98;80.78809;943.1124;;;;
2023/10/11 06:56:43;;;;;;;5.8;2.3;;;;;;;13.27;79.46387;943.1187;;;;
2023/10/11 06:59:07;;;;;;;2.8;1.7;;;;;;;13.37;78.68848;943.1529;;;;
2023/10/11 07:01:35;;;;;;;3.5;2;;;;;;;13.35;79.03027;943.1041;;;;
2023/10/11 07:03:57;;;;;;;3.2;1.6;;;;;;;13.6;77.85547;943.1258;;;;
2023/10/11 07:06:22;;;;;;;6.2;1.9;;;;;;;13.83;77.13867;943.1308;;;;
2023/10/11 07:08:53;;;;;;;3.4;1.6;;;;;;;13.9;77.28906;943.079;;;;
2023/10/11 07:11:16;;;;;;;3.6;1.9;;;;;;;14.08;76.80176;943.0488;;;;
2023/10/11 07:13:54;;;;;;;3;1.8;;;;;;;14.33;75.69434;943.0315;;;;
2023/10/11 07:16:08;;;;;;;3.6;1.9;;;;;;;14.65;75.07031;943.041;;;;
2023/10/11 07:18:39;;;;;;;2.2;1.4;;;;;;;14.67;73.18359;943.0129;;;;
2023/10/11 07:21:07;;;;;;;3.2;1.6;;;;;;;14.74;73.65625;943.0227;;;;
2023/10/11 07:23:23;;;;;;;4.3;2.1;;;;;;;14.68;73;943.0298;;;;
2023/10/11 07:25:59;;;;;;;3.2;2.3;;;;;;;14.9;73.65918;943.0062;;;;
2023/10/11 07:28:17;;;;;;;5.1;1.9;;;;;;;15.13;72.56836;943.0579;;;;
2023/10/11 07:30:39;;;;;;;7.5;3.3;;;;;;;15.4;71.67773;943.0258;;;;
2023/10/11 07:33:11;;;;;;;7.2;2.6;;;;;;;15.49;70.26074;942.9794;;;;
2023/10/11 07:35:34;;;;;;;8;2.7;;;;;;;15.56;69.11719;943.0258;;;;
2023/10/11 07:38:02;;;;;;;4.1;2.5;;;;;;;15.88;69.57129;943.0388;;;;
2023/10/11 07:40:34;;;;;;;6;2.3;;;;;;;16.21;67.83008;943.0112;;;;
2023/10/11 07:42:54;;;;;;;4.5;2.2;;;;;;;16.34;67.74707;942.9417;;;;
2023/10/11 07:45:17;;;;;;;5.1;2.1;;;;;;;16.55;66.7373;943.0189;;;;
2023/10/11 07:47:48;;;;;;;2.8;1.5;;;;;;;16.77;63.00781;943.0125;;;;
2023/10/11 07:50:14;;;;;;;4.5;1.7;;;;;;;16.88;62.90625;942.9509;;;;
2023/10/11 07:52:38;;;;;;;2.8;1.5;;;;;;;17.2;60.57715;942.9236;;;;
2023/10/11 07:55:08;;;;;;;2;1.5;;;;;;;17.27;59.9248;942.875;;;;
2023/10/11 07:57:29;;;;;;;2.5;1.5;;;;;;;17.39;59.7207;942.8394;;;;
2023/10/11 07:59:54;;;;;;;2.6;1.3;;;;;;;17.59;58.04297;942.7844;;;;
2023/10/11 08:02:29;;;;;;;1.9;1.3;;;;;;;18.02;59.45801;942.7841;;;;
2023/10/11 08:04:47;;;;;;;4.1;1.6;;;;;;;18.36;57.0752;942.7728;;;;
2023/10/11 08:07:16;;;;;;;1.8;1.2;;;;;;;18.46;54.67969;942.7299;;;;
2023/10/11 08:09:45;;;;;;;3.5;2;;;;;;;18.55;54.66992;942.7551;;;;
2023/10/11 08:12:00;;;;;;;2.3;1.4;;;;;;;18.57;53.94922;942.6663;;;;
2023/10/11 08:14:28;;;;;;;2.3;1.4;;;;;;;18.41;55.03516;942.702;;;;
2023/10/11 08:16:50;;;;;;;3.3;1.4;;;;;;;18.88;56.03711;942.6883;;;;
2023/10/11 08:19:15;;;;;;;3.4;1.5;;;;;;;19.16;53.98828;942.6348;;;;
2023/10/11 08:21:47;;;;;;;3;1.6;;;;;;;18.78;54.34961;942.6298;;;;
2023/10/11 08:24:15;;;;;;;3.8;1.8;;;;;;;19.09;54.10742;942.5981;;;;
2023/10/11 08:26:42;;;;;;;3.2;1.7;;;;;;;19.63;53.46191;942.5914;;;;
2023/10/11 08:29:14;;;;;;;5;1.7;;;;;;;20.11;51.82813;942.5673;;;;
2023/10/11 08:31:35;;;;;;;2.9;1.8;;;;;;;19.98;53.93652;942.5817;;;;
2023/10/11 08:33:53;;;;;;;2.8;1.3;;;;;;;20.02;52.19141;942.4753;;;;
2023/10/11 08:36:18;;;;;;;2.8;1.5;;;;;;;20.02;52.00488;942.4858;;;;
2023/10/11 08:38:44;;;;;;;4;1.7;;;;;;;20.21;52.05078;942.4917;;;;
2023/10/11 08:41:10;;;;;;;1.9;1.4;;;;;;;20.32;51.40918;942.4856;;;;
2023/10/11 08:43:34;;;;;;;3.1;1.5;;;;;;;20.45;50.54688;942.4261;;;;
2023/10/11 08:46:08;;;;;;;2.4;1.5;;;;;;;20.49;52.12988;942.4793;;;;
2023/10/11 08:48:25;;;;;;;2.8;1.3;;;;;;;20.74;54.22852;942.4107;;;;
2023/10/11 08:50:53;;;;;;;1.7;1.2;;;;;;;20.55;50.89844;942.376;;;;
2023/10/11 08:53:15;;;;;;;1.8;1.3;;;;;;;20.46;50.39746;942.3667;;;;
2023/10/11 08:55:41;;;;;;;3.1;1.2;;;;;;;20.03;49.73047;942.3159;;;;
2023/10/11 08:58:07;;;;;;;2.4;1.4;;;;;;;20.26;50.09473;942.2751;;;;
2023/10/11 09:00:31;;;;;;;3.4;1.6;;;;;;;20.07;49.94434;942.2495;;;;
2023/10/11 09:02:59;;;;;;;1.5;1.1;;;;;;;20.17;50.90039;942.1902;;;;
2023/10/11 09:05:32;;;;;;;1.8;1.3;;;;;;;20.44;50.23145;942.2321;;;;
2023/10/11 09:07:51;;;;;;;3.1;1.5;;;;;;;20.86;50.31348;942.1938;;;;
2023/10/11 09:10:15;;;;;;;1.8;1.5;;;;;;;20.98;49.41602;942.1666;;;;
2023/10/11 09:12:49;;;;;;;3.8;1.6;;;;;;;21.26;49.14355;942.129;;;;
2023/10/11 09:15:14;;;;;;;3.2;1.6;;;;;;;21.28;49.2041;942.1121;;;;
2023/10/11 09:17:39;;;;;;;4.4;1.5;;;;;;;21.15;47.24805;942.1788;;;;
2023/10/11 09:20:08;;;;;;;2.2;1.3;;;;;;;21.37;49.30664;942.1594;;;;
2023/10/11 09:22:28;;;;;;;2;1.3;;;;;;;21.49;49.84863;942.1903;;;;
2023/10/11 09:24:55;;;;;;;2.4;1.3;;;;;;;22.02;48.39551;942.144;;;;
2023/10/11 09:27:20;;;;;;;3.8;1.9;;;;;;;22.07;48.96387;942.1398;;;;
2023/10/11 09:29:43;;;;;;;2.9;1.4;;;;;;;21.94;46.54688;942.1074;;;;
2023/10/11 09:32:09;;;;;;;4.2;1.3;;;;;;;21.81;48.24316;942.093;;;;
2023/10/11 09:34:34;;;;;;;2.2;1.3;;;;;;;21.96;47.94238;942.0363;;;;
2023/10/11 09:36:58;;;;;;;18.9;3.3;;;;;;;21.72;47.14355;942.0265;;;;
2023/10/11 09:39:29;;;;;;;2.4;1.6;;;;;;;21.71;46.26465;942.0112;;;;
2023/10/11 09:41:53;;;;;;;1.7;1.2;;;;;;;21.59;45.72461;941.9908;;;;
2023/10/11 09:44:14;;;;;;;2.7;1.2;;;;;;;21.6;46.45215;941.9728;;;;
2023/10/11 09:46:43;;;;;;;4;1.5;;;;;;;21.81;46.95508;941.8488;;;;
2023/10/11 09:49:12;;;;;;;2.5;1.3;;;;;;;21.74;46.56055;941.8614;;;;
2023/10/11 09:51:31;;;;;;;1.5;1.2;;;;;;;21.91;47.10645;941.925;;;;
2023/10/11 09:54:05;;;;;;;3.9;1.6;;;;;;;22.07;46.17285;941.8862;;;;
2023/10/11 09:56:23;;;;;;;2.4;1.3;;;;;;;22.32;44.68652;941.8499;;;;
2023/10/11 09:58:54;;;;;;;1.8;1.1;;;;;;;22.41;45.00098;941.825;;;;
2023/10/11 10:01:18;;;;;;;1.9;1.2;;;;;;;22.47;44.58398;941.8017;;;;
2023/10/11 10:03:40;;;;;;;2.1;1.3;;;;;;;22.42;45.7998;941.8045;;;;
2023/10/11 10:06:07;;;;;;;2.2;1.3;;;;;;;22.55;46.74023;941.8211;;;;
2023/10/11 10:08:32;;;;;;;4.1;1.4;;;;;;;22.63;43.15625;941.7695;;;;
2023/10/11 10:10:58;;;;;;;2;1.1;;;;;;;22.38;43.80078;941.7512;;;;
2023/10/11 10:13:25;;;;;;;4.3;1.8;;;;;;;22.49;43.64648;941.7079;;;;
2023/10/11 10:15:51;;;;;;;2.7;1.2;;;;;;;22.67;43.95898;941.7056;;;;
2023/10/11 10:18:14;;;;;;;2.5;1.2;;;;;;;23.03;42.57324;941.6509;;;;
2023/10/11 10:20:46;;;;;;;2.6;1.8;;;;;;;23.35;42.70898;941.6484;;;;
2023/10/11 10:23:05;;;;;;;1.6;1;;;;;;;23.52;45.08984;941.6305;;;;
2023/10/11 10:25:30;;;;;;;4.6;1.7;;;;;;;23.43;42.63477;941.5858;;;;
2023/10/11 10:27:55;;;;;;;2.4;1.3;;;;;;;23.35;42.94434;941.5542;;;;
2023/10/11 10:30:21;;;;;;;2.9;1.2;;;;;;;23.38;43.40527;941.5297;;;;
2023/10/11 10:32:45;;;;;;;3.8;2;;;;;;;23.45;43.08301;941.4959;;;;
2023/10/11 10:35:11;;;;;;;3.2;1.4;;;;;;;23.47;41.34473;941.4462;;;;
2023/10/11 10:37:36;;;;;;;2.9;1.2;;;;;;;23.36;42.93359;941.4457;;;;
2023/10/11 10:40:07;;;;;;;2.8;1.2;;;;;;;23.47;43.9668;941.4204;;;;
2023/10/11 10:42:27;;;;;;;3.5;1.3;;;;;;;23.6;44.22656;941.4135;;;;
2023/10/11 10:44:53;;;;;;;2.6;1.4;;;;;;;23.83;41.88379;941.3723;;;;
2023/10/11 10:47:18;;;;;;;3;1.6;;;;;;;23.73;42.11035;941.3894;;;;
2023/10/11 10:49:47;;;;;;;3.3;1.6;;;;;;;23.95;42.86133;941.35;;;;
2023/10/11 10:52:09;;;;;;;3.9;1.1;;;;;;;24.04;39.07813;941.3313;;;;
2023/10/11 10:54:37;;;;;;;3;1.5;;;;;;;24.1;40.5791;941.3127;;;;
2023/10/11 10:57:03;;;;;;;3;1;;;;;;;24.1;41.63965;941.2525;;;;
2023/10/11 10:59:26;;;;;;;2.1;1.1;;;;;;;24.11;42.36914;941.2272;;;;
2023/10/11 11:01:53;;;;;;;2.7;1.5;;;;;;;24.24;41.80469;941.1703;;;;
2023/10/11 11:04:20;;;;;;;3.7;1.8;;;;;;;24.62;41.59277;941.2;;;;
2023/10/11 11:06:44;;;;;;;3.1;1.7;;;;;;;24.83;39.22949;941.2088;;;;
2023/10/11 11:09:14;;;;;;;1.6;1;;;;;;;24.97;38.16895;941.1411;;;;
2023/10/11 11:11:35;;;;;;;1.7;1.1;;;;;;;25.27;37.74512;941.1092;;;;
2023/10/11 11:13:58;;;;;;;2.9;1.5;;;;;;;25.29;36.9209;941.0664;;;;
2023/10/11 11:16:26;;;;;;;3.3;1.3;;;;;;;25.48;38.2832;941.0912;;;;
2023/10/11 11:18:48;;;;;;;4.7;1.8;;;;;;;25.62;39.23926;941.0998;;;;
2023/10/11 11:21:20;;;;;;;3.5;1.8;;;;;;;25.9;39.37109;941.045;;;;
2023/10/11 11:23:44;;;;;;;4;2.1;;;;;;;26.02;38.81445;941.0175;;;;
2023/10/11 11:26:15;;;;;;;15.3;2.4;;;;;;;25.71;40.72559;941.0125;;;;
2023/10/11 11:28:39;;;;;;;2.9;1.4;;;;;;;25.78;41.55957;940.9828;;;;
2023/10/11 11:31:03;;;;;;;3.7;1.9;;;;;;;26.15;40.16211;940.9905;;;;
2023/10/11 11:33:27;;;;;;;3.2;1.7;;;;;;;26.7;38.80273;940.9243;;;;
2023/10/11 11:35:51;;;;;;;3;1.4;;;;;;;27.12;36.94141;940.8544;;;;
2023/10/11 11:38:20;;;;;;;2.9;1.2;;;;;;;26.99;36.45605;940.8434;;;;
2023/10/11 11:40:47;;;;;;;2.3;1.2;;;;;;;27.09;37.29492;940.8494;;;;
2023/10/11 11:43:03;;;;;;;2.7;1.6;;;;;;;26.75;39.57617;940.8181;;;;
2023/10/11 11:45:29;;;;;;;3.7;1.7;;;;;;;26.51;38.64355;940.7366;;;;
2023/10/11 11:47:58;;;;;;;3.6;1.9;;;;;;;27.1;38.49316;940.7302;;;;
2023/10/11 11:50:18;;;;;;;4;1.9;;;;;;;27.73;35.06836;940.685;;;;
2023/10/11 11:52:43;;;;;;;2.1;1.2;;;;;;;27.5;37.20996;940.6418;;;;
2023/10/11 11:55:10;;;;;;;4.8;1.9;;;;;;;27.86;35.93359;940.6567;;;;
2023/10/11 11:57:35;;;;;;;2.4;1.5;;;;;;;28.17;35.00781;940.6149;;;;
2023/10/11 12:00:05;;;;;;;3;1.7;;;;;;;28.38;35.01172;940.645;;;;
2023/10/11 12:02:26;;;;;;;1.5;1.2;;;;;;;28.68;32.92969;940.5979;;;;
2023/10/11 12:04:50;;;;;;;3.3;1.6;;;;;;;28.2;34.99805;940.5633;;;;
2023/10/11 12:07:18;;;;;;;3;1.5;;;;;;;27.47;37.84766;940.4897;;;;
2023/10/11 12:09:44;;;;;;;4.4;1.8;;;;;;;26.96;36.8457;940.4565;;;;
2023/10/11 12:12:12;;;;;;;2.3;1.5;;;;;;;26.8;37.7334;940.3979;;;;
2023/10/11 12:14:37;;;;;;;2.6;1.3;;;;;;;27.3;38.36816;940.39;;;;
2023/10/11 12:17:09;;;;;;;3.2;1.7;;;;;;;27.55;34.9834;940.3369;;;;
2023/10/11 12:19:32;;;;;;;3;1.4;;;;;;;27.8;35.91699;940.2867;;;;
2023/10/11 12:21:57;;;;;;;2.8;1.4;;;;;;;27.68;36.23926;940.2933;;;;
2023/10/11 12:24:21;;;;;;;2.2;1.4;;;;;;;27.9;36.11523;940.2494;;;;
2023/10/11 12:26:47;;;;;;;3.2;1.6;;;;;;;27.8;35.72754;940.2383;;;;
2023/10/11 12:29:12;;;;;;;2.2;1.6;;;;;;;27.86;36.1709;940.2625;;;;
2023/10/11 12:31:38;;;;;;;2.9;1.7;;;;;;;27.83;37.97363;940.2408;;;;
2023/10/11 12:34:04;;;;;;;1.7;1.3;;;;;;;27.77;37.88574;940.1916;;;;
2023/10/11 12:36:29;;;;;;;5;1.9;;;;;;;27.82;36.00098;940.1867;;;;
2023/10/11 12:38:57;;;;;;;3.4;1.5;;;;;;;27.82;38.19922;940.1839;;;;
2023/10/11 12:41:20;;;;;;;3.5;1.5;;;;;;;27.98;37.49902;940.1909;;;;
2023/10/11 12:43:49;;;;;;;1.8;1.2;;;;;;;27.87;37.11035;940.1571;;;;
2023/10/11 12:46:16;;;;;;;2.8;1.6;;;;;;;28.25;37.18945;940.1555;;;;
2023/10/11 12:48:38;;;;;;;3.4;1.8;;;;;;;28.27;36.94141;940.1183;;;;
2023/10/11 12:51:05;;;;;;;2.9;1.6;;;;;;;28.33;37.38574;940.0883;;;;
2023/10/11 12:53:29;;;;;;;1.9;1.2;;;;;;;28.28;37.78516;940.1403;;;;
2023/10/11 12:55:54;;;;;;;1.8;1.3;;;;;;;28.2;37.54199;940.0316;;;;
2023/10/11 12:58:19;;;;;;;2.7;1.4;;;;;;;28.2;37.63574;940.0778;;;;
2023/10/11 13:00:51;;;;;;;1.7;1.3;;;;;;;28.45;37.97852;940.0603;;;;
2023/10/11 13:03:18;;;;;;;3.2;1.5;;;;;;;28.46;37.59961;940.0447;;;;
2023/10/11 13:05:39;;;;;;;3.3;1.5;;;;;;;28.04;38.64453;940.0145;;;;
2023/10/11 13:08:03;;;;;;;2.1;1.4;;;;;;;27.89;39.11816;940.0407;;;;
2023/10/11 13:10:29;;;;;;;3.1;1.5;;;;;;;27.79;39.91699;940.0081;;;;
2023/10/11 13:12:55;;;;;;;4.4;1.5;;;;;;;28.13;38.8418;940.0408;;;;
2023/10/11 13:15:24;;;;;;;2.3;1.2;;;;;;;27.94;39.06348;939.978;;;;
2023/10/11 13:17:48;;;;;;;2.4;1.4;;;;;;;28.09;38.71973;940.069;;;;
2023/10/11 13:20:18;;;;;;;2.5;1.5;;;;;;;27.74;39.07031;940.0835;;;;
2023/10/11 13:22:40;;;;;;;3.7;1.7;;;;;;;27.47;39.90137;940.0336;;;;
2023/10/11 13:25:22;;;;;;;4.8;1.7;;;;;;;27.44;39.99414;940.05;;;;
2023/10/11 13:27:34;;;;;;;2.8;1.3;;;;;;;27.43;39.45801;940.0407;;;;
2023/10/11 13:30:02;;;;;;;2.7;1.7;;;;;;;27.77;39.79688;939.9666;;;;
2023/10/11 13:32:28;;;;;;;2.7;1.5;;;;;;;28.05;40.35645;939.9609;;;;
2023/10/11 13:34:52;;;;;;;1.7;1.5;;;;;;;27.86;39.61523;939.8898;;;;
2023/10/11 13:37:18;;;;;;;2.5;1.3;;;;;;;27.58;41.31152;939.9507;;;;
2023/10/11 13:39:46;;;;;;;2.1;1.7;;;;;;;27.6;40.03125;939.9411;;;;
2023/10/11 13:42:09;;;;;;;3.8;2.1;;;;;;;27.81;40.69043;939.9031;;;;
2023/10/11 13:44:32;;;;;;;3.5;1.6;;;;;;;27.51;41.64941;939.8663;;;;
2023/10/11 13:46:58;;;;;;;2.3;1.4;;;;;;;27.37;42.53711;939.8984;;;;
2023/10/11 13:49:27;;;;;;;1.9;1.5;;;;;;;27.37;41.42285;939.8752;;;;
2023/10/11 13:51:48;;;;;;;3.1;1.8;;;;;;;27.47;40.96875;939.8703;;;;
2023/10/11 13:54:19;;;;;;;2.4;1.6;;;;;;;27.25;41.60059;939.8653;;;;
2023/10/11 13:56:40;;;;;;;3.1;1.8;;;;;;;27.05;41.17871;939.8233;;;;
2023/10/11 13:59:10;;;;;;;1.9;1.7;;;;;;;26.72;41.7168;939.8328;;;;
2023/10/11 14:01:58;;;;;;;2.3;1.8;;;;;;;26.84;41.88281;939.7581;;;;
2023/10/11 14:04:04;;;;;;;3.9;2;;;;;;;26.9;42.04297;939.8293;;;;
2023/10/11 14:06:30;;;;;;;4.7;1.8;;;;;;;27.17;42.12695;939.7653;;;;
2023/10/11 14:08:47;;;;;;;2.8;1.9;;;;;;;27.35;40.6377;939.7837;;;;
2023/10/11 14:11:14;;;;;;;2.8;1.8;;;;;;;27.18;40.90625;939.783;;;;
2023/10/11 14:13:38;;;;;;;3.8;1.9;;;;;;;26.84;41.43262;939.7271;;;;
2023/10/11 14:16:04;;;;;;;3.8;2;;;;;;;27.02;41.69824;939.6844;;;;
2023/10/11 14:18:30;;;;;;;3.7;2;;;;;;;27.18;41.74805;939.7356;;;;
2023/10/11 14:20:55;;;;;;;2.4;1.5;;;;;;;27.34;41.30176;939.6942;;;;
2023/10/11 14:23:17;;;;;;;4.2;1.4;;;;;;;27.39;41.11621;939.6967;;;;
2023/10/11 14:25:44;;;;;;;2.7;1.4;;;;;;;27.05;41.84375;939.5817;;;;
2023/10/11 14:28:14;;;;;;;3;1.5;;;;;;;26.77;41.76855;939.6163;;;;
2023/10/11 14:30:35;;;;;;;3.5;1.8;;;;;;;26.91;41.41602;939.5559;;;;
2023/10/11 14:33:00;;;;;;;2.7;1.6;;;;;;;27.11;40.79395;939.6161;;;;
2023/10/11 14:35:27;;;;;;;2.1;1.6;;;;;;;27.15;40.16797;939.6914;;;;
2023/10/11 14:37:50;;;;;;;2.5;1.6;;;;;;;26.97;39.37012;939.6066;;;;
2023/10/11 14:40:16;;;;;;;3.8;1.7;;;;;;;27.02;39.50488;939.6096;;;;
2023/10/11 14:42:42;;;;;;;3.1;1.6;;;;;;;27.1;39.52441;939.6021;;;;
2023/10/11 14:45:13;;;;;;;2;1.6;;;;;;;26.99;39.00488;939.5485;;;;
2023/10/11 14:47:43;;;;;;;3.8;1.8;;;;;;;26.99;39.18262;939.6644;;;;
2023/10/11 14:50:10;;;;;;;2.1;1.4;;;;;;;26.92;39.00977;939.6897;;;;
2023/10/11 14:52:30;;;;;;;3;1.7;;;;;;;26.89;39.18555;939.6092;;;;
2023/10/11 14:54:56;;;;;;;4.3;1.9;;;;;;;26.77;40.09863;939.5933;;;;
2023/10/11 14:57:21;;;;;;;1.8;1.3;;;;;;;26.56;40.30566;939.5488;;;;
2023/10/11 14:59:46;;;;;;;2.2;1.2;;;;;;;26.62;40.85547;939.6267;;;;
2023/10/11 15:02:12;;;;;;;3;1.7;;;;;;;26.68;39.07227;939.6239;;;;
2023/10/11 15:04:39;;;;;;;4.2;1.5;;;;;;;26.47;39.63379;939.6376;;;;
2023/10/11 15:07:06;;;;;;;4.7;2;;;;;;;26.46;39.32617;939.597;;;;
2023/10/11 15:09:33;;;;;;;3.5;1.6;;;;;;;26.21;40.16797;939.6241;;;;